sensor_id;sensor_type;location;lat;lon;timestamp;temperature;humidity
1700;DHT22;847;48.058;7.810;2024-03-02T00:01:52;6.60;95.40
1700;DHT22;847;48.058;7.810;2024-03-02T00:04:36;6.60;95.30
1700;DHT22;847;48.058;7.810;2024-03-02T00:07:17;6.60;95.00
1700;DHT22;847;48.058;7.810;2024-03-02T00:09:55;6.50;95.00
1700;DHT22;847;48.058;7.810;2024-03-02T00:12:25;6.70;94.50
1700;DHT22;847;48.058;7.810;2024-03-02T00:14:53;6.80;94.50
1700;DHT22;847;48.058;7.810;2024-03-02T00:17:35;6.80;93.90
1700;DHT22;847;48.058;7.810;2024-03-02T00:20:24;6.90;94.10
1700;DHT22;847;48.058;7.810;2024-03-02T00:23:09;7.20;93.00
1700;DHT22;847;48.058;7.810;2024-03-02T00:25:41;6.90;93.00
1700;DHT22;847;48.058;7.810;2024-03-02T00:28:20;6.90;93.50
1700;DHT22;847;48.058;7.810;2024-03-02T00:33:47;6.70;94.20
1700;DHT22;847;48.058;7.810;2024-03-02T00:39:16;6.60;93.60
1700;DHT22;847;48.058;7.810;2024-03-02T00:41:44;6.40;94.10
1700;DHT22;847;48.058;7.810;2024-03-02T00:44:15;6.30;94.40
1700;DHT22;847;48.058;7.810;2024-03-02T00:46:46;6.20;94.50
1700;DHT22;847;48.058;7.810;2024-03-02T00:49:21;6.10;94.90
1700;DHT22;847;48.058;7.810;2024-03-02T00:51:58;6.10;94.90
1700;DHT22;847;48.058;7.810;2024-03-02T00:54:35;6.00;95.20
1700;DHT22;847;48.058;7.810;2024-03-02T00:57:17;5.90;95.70
1700;DHT22;847;48.058;7.810;2024-03-02T00:59:46;5.90;95.80
1700;DHT22;847;48.058;7.810;2024-03-02T01:02:14;5.80;95.60
1700;DHT22;847;48.058;7.810;2024-03-02T01:05:08;5.70;95.90
1700;DHT22;847;48.058;7.810;2024-03-02T01:08:07;5.70;96.30
1700;DHT22;847;48.058;7.810;2024-03-02T01:10:56;5.70;96.40
1700;DHT22;847;48.058;7.810;2024-03-02T01:13:27;5.70;95.90
1700;DHT22;847;48.058;7.810;2024-03-02T01:16:00;5.70;96.20
1700;DHT22;847;48.058;7.810;2024-03-02T01:18:35;5.60;96.60
1700;DHT22;847;48.058;7.810;2024-03-02T01:21:10;5.60;96.30
1700;DHT22;847;48.058;7.810;2024-03-02T01:23:42;5.50;96.10
1700;DHT22;847;48.058;7.810;2024-03-02T01:26:17;5.50;96.70
1700;DHT22;847;48.058;7.810;2024-03-02T01:28:58;5.50;96.90
1700;DHT22;847;48.058;7.810;2024-03-02T01:31:34;5.50;96.40
1700;DHT22;847;48.058;7.810;2024-03-02T01:34:12;5.50;96.10
1700;DHT22;847;48.058;7.810;2024-03-02T01:36:46;5.40;96.40
1700;DHT22;847;48.058;7.810;2024-03-02T01:39:17;5.30;96.90
1700;DHT22;847;48.058;7.810;2024-03-02T01:41:53;5.30;96.90
1700;DHT22;847;48.058;7.810;2024-03-02T01:44:23;5.30;96.80
1700;DHT22;847;48.058;7.810;2024-03-02T01:46:58;5.20;96.90
1700;DHT22;847;48.058;7.810;2024-03-02T01:49:35;5.20;96.70
1700;DHT22;847;48.058;7.810;2024-03-02T01:52:05;5.20;96.80
1700;DHT22;847;48.058;7.810;2024-03-02T01:57:28;5.20;96.80
1700;DHT22;847;48.058;7.810;2024-03-02T02:00:00;5.20;96.50
1700;DHT22;847;48.058;7.810;2024-03-02T02:02:38;5.10;96.90
1700;DHT22;847;48.058;7.810;2024-03-02T02:05:12;5.10;96.70
1700;DHT22;847;48.058;7.810;2024-03-02T02:07:50;5.00;97.50
1700;DHT22;847;48.058;7.810;2024-03-02T02:10:19;5.10;96.80
1700;DHT22;847;48.058;7.810;2024-03-02T02:12:54;5.00;96.90
1700;DHT22;847;48.058;7.810;2024-03-02T02:15:29;5.10;96.70
1700;DHT22;847;48.058;7.810;2024-03-02T02:18:04;5.10;96.90
1700;DHT22;847;48.058;7.810;2024-03-02T02:20:32;5.00;96.80
1700;DHT22;847;48.058;7.810;2024-03-02T02:23:10;4.90;96.80
1700;DHT22;847;48.058;7.810;2024-03-02T02:28:54;4.80;96.70
1700;DHT22;847;48.058;7.810;2024-03-02T02:31:28;4.70;97.60
1700;DHT22;847;48.058;7.810;2024-03-02T02:34:09;4.70;98.00
1700;DHT22;847;48.058;7.810;2024-03-02T02:36:43;4.70;97.30
1700;DHT22;847;48.058;7.810;2024-03-02T02:39:20;4.70;98.10
1700;DHT22;847;48.058;7.810;2024-03-02T02:41:56;4.90;97.10
1700;DHT22;847;48.058;7.810;2024-03-02T02:44:27;4.80;96.90
1700;DHT22;847;48.058;7.810;2024-03-02T02:47:36;4.70;97.20
1700;DHT22;847;48.058;7.810;2024-03-02T02:50:10;4.50;97.40
1700;DHT22;847;48.058;7.810;2024-03-02T02:52:45;4.60;97.70
1700;DHT22;847;48.058;7.810;2024-03-02T02:58:20;4.40;97.30
1700;DHT22;847;48.058;7.810;2024-03-02T03:16:23;4.60;97.80
1700;DHT22;847;48.058;7.810;2024-03-02T03:18:53;4.60;98.00
1700;DHT22;847;48.058;7.810;2024-03-02T03:21:22;4.60;97.60
1700;DHT22;847;48.058;7.810;2024-03-02T03:23:54;4.50;97.80
1700;DHT22;847;48.058;7.810;2024-03-02T03:26:26;4.30;97.90
1700;DHT22;847;48.058;7.810;2024-03-02T03:28:55;4.30;98.40
1700;DHT22;847;48.058;7.810;2024-03-02T03:31:28;4.30;98.60
1700;DHT22;847;48.058;7.810;2024-03-02T03:34:17;4.20;98.30
1700;DHT22;847;48.058;7.810;2024-03-02T03:42:19;4.10;98.70
1700;DHT22;847;48.058;7.810;2024-03-02T03:44:49;4.10;98.50
1700;DHT22;847;48.058;7.810;2024-03-02T03:52:49;4.00;98.90
1700;DHT22;847;48.058;7.810;2024-03-02T03:55:22;4.30;98.60
1700;DHT22;847;48.058;7.810;2024-03-02T04:00:27;4.10;98.40
1700;DHT22;847;48.058;7.810;2024-03-02T04:03:02;4.10;98.30
1700;DHT22;847;48.058;7.810;2024-03-02T04:05:30;4.10;98.20
1700;DHT22;847;48.058;7.810;2024-03-02T04:08:08;4.10;98.30
1700;DHT22;847;48.058;7.810;2024-03-02T04:10:39;4.10;98.30
1700;DHT22;847;48.058;7.810;2024-03-02T04:13:10;4.10;98.40
1700;DHT22;847;48.058;7.810;2024-03-02T10:59:33;11.90;82.40
1700;DHT22;847;48.058;7.810;2024-03-02T11:02:02;11.90;81.90
1700;DHT22;847;48.058;7.810;2024-03-02T11:04:36;11.90;81.80
1700;DHT22;847;48.058;7.810;2024-03-02T11:07:10;11.90;81.80
1700;DHT22;847;48.058;7.810;2024-03-02T11:09:44;12.00;82.50
1700;DHT22;847;48.058;7.810;2024-03-02T11:12:22;12.10;81.60
1700;DHT22;847;48.058;7.810;2024-03-02T11:14:52;12.20;80.90
1700;DHT22;847;48.058;7.810;2024-03-02T11:17:19;12.30;79.30
1700;DHT22;847;48.058;7.810;2024-03-02T11:19:48;12.40;80.60
1700;DHT22;847;48.058;7.810;2024-03-02T11:22:16;12.30;80.40
1700;DHT22;847;48.058;7.810;2024-03-02T11:24:48;12.30;80.10
1700;DHT22;847;48.058;7.810;2024-03-02T11:30:56;12.60;79.20
1700;DHT22;847;48.058;7.810;2024-03-02T11:33:26;12.60;77.80
1700;DHT22;847;48.058;7.810;2024-03-02T11:35:56;12.70;77.70
1700;DHT22;847;48.058;7.810;2024-03-02T11:38:28;12.80;77.50
1700;DHT22;847;48.058;7.810;2024-03-02T11:41:01;12.80;78.40
1700;DHT22;847;48.058;7.810;2024-03-02T11:43:30;12.90;78.20
1700;DHT22;847;48.058;7.810;2024-03-02T11:45:59;12.90;77.50
1700;DHT22;847;48.058;7.810;2024-03-02T11:48:26;12.90;77.70
1700;DHT22;847;48.058;7.810;2024-03-02T11:50:53;12.90;77.90
1700;DHT22;847;48.058;7.810;2024-03-02T11:53:24;13.00;78.80
1700;DHT22;847;48.058;7.810;2024-03-02T11:55:55;13.10;79.10
1700;DHT22;847;48.058;7.810;2024-03-02T11:58:22;13.10;75.50
1700;DHT22;847;48.058;7.810;2024-03-02T12:00:52;13.20;76.70
1700;DHT22;847;48.058;7.810;2024-03-02T12:03:21;13.30;74.10
1700;DHT22;847;48.058;7.810;2024-03-02T12:05:49;13.40;72.10
1700;DHT22;847;48.058;7.810;2024-03-02T12:08:16;13.40;72.60
1700;DHT22;847;48.058;7.810;2024-03-02T12:10:43;13.40;74.90
1700;DHT22;847;48.058;7.810;2024-03-02T12:13:22;13.50;73.60
1700;DHT22;847;48.058;7.810;2024-03-02T12:15:54;13.50;73.80
1700;DHT22;847;48.058;7.810;2024-03-02T12:18:22;13.50;75.10
1700;DHT22;847;48.058;7.810;2024-03-02T12:20:49;13.40;75.40
1700;DHT22;847;48.058;7.810;2024-03-02T12:23:18;13.40;75.40
1700;DHT22;847;48.058;7.810;2024-03-02T12:25:45;13.40;75.40
1700;DHT22;847;48.058;7.810;2024-03-02T12:28:13;13.50;73.70
1700;DHT22;847;48.058;7.810;2024-03-02T12:30:40;13.50;76.10
1700;DHT22;847;48.058;7.810;2024-03-02T12:33:08;13.50;76.40
1700;DHT22;847;48.058;7.810;2024-03-02T12:35:37;13.60;72.70
1700;DHT22;847;48.058;7.810;2024-03-02T12:38:05;13.70;73.00
1700;DHT22;847;48.058;7.810;2024-03-02T12:40:31;13.70;75.10
1700;DHT22;847;48.058;7.810;2024-03-02T12:42:58;13.80;76.00
1700;DHT22;847;48.058;7.810;2024-03-02T12:45:26;13.80;74.60
1700;DHT22;847;48.058;7.810;2024-03-02T12:47:53;13.80;72.20
1700;DHT22;847;48.058;7.810;2024-03-02T12:50:22;14.00;72.20
1700;DHT22;847;48.058;7.810;2024-03-02T12:52:52;14.00;72.70
1700;DHT22;847;48.058;7.810;2024-03-02T12:55:23;14.00;73.00
1700;DHT22;847;48.058;7.810;2024-03-02T12:57:52;14.10;71.90
1700;DHT22;847;48.058;7.810;2024-03-02T13:00:20;14.20;72.50
1700;DHT22;847;48.058;7.810;2024-03-02T13:02:47;14.20;72.00
1700;DHT22;847;48.058;7.810;2024-03-02T13:05:16;14.30;71.50
1700;DHT22;847;48.058;7.810;2024-03-02T13:07:46;14.40;72.30
1700;DHT22;847;48.058;7.810;2024-03-02T13:10:13;14.50;70.70
1700;DHT22;847;48.058;7.810;2024-03-02T13:12:40;14.50;71.20
1700;DHT22;847;48.058;7.810;2024-03-02T13:15:09;14.50;69.60
1700;DHT22;847;48.058;7.810;2024-03-02T13:17:36;14.50;73.00
1700;DHT22;847;48.058;7.810;2024-03-02T13:20:03;14.50;71.70
1700;DHT22;847;48.058;7.810;2024-03-02T13:22:33;14.50;70.60
1700;DHT22;847;48.058;7.810;2024-03-02T13:25:01;14.40;70.60
1700;DHT22;847;48.058;7.810;2024-03-02T13:27:29;14.50;71.10
1700;DHT22;847;48.058;7.810;2024-03-02T13:30:03;14.40;69.20
1700;DHT22;847;48.058;7.810;2024-03-02T13:32:31;14.40;69.10
1700;DHT22;847;48.058;7.810;2024-03-02T13:34:58;14.50;70.60
1700;DHT22;847;48.058;7.810;2024-03-02T13:37:24;14.50;69.30
1700;DHT22;847;48.058;7.810;2024-03-02T13:39:51;14.60;71.30
1700;DHT22;847;48.058;7.810;2024-03-02T13:42:19;14.80;70.90
1700;DHT22;847;48.058;7.810;2024-03-02T13:44:46;14.70;71.50
1700;DHT22;847;48.058;7.810;2024-03-02T13:47:15;14.70;72.80
1700;DHT22;847;48.058;7.810;2024-03-02T13:49:42;14.60;73.80
1700;DHT22;847;48.058;7.810;2024-03-02T13:52:11;14.60;72.30
1700;DHT22;847;48.058;7.810;2024-03-02T13:54:39;14.60;72.30
1700;DHT22;847;48.058;7.810;2024-03-02T13:57:06;14.60;72.50
1700;DHT22;847;48.058;7.810;2024-03-02T13:59:35;14.60;73.30
1700;DHT22;847;48.058;7.810;2024-03-02T14:02:02;14.60;74.90
1700;DHT22;847;48.058;7.810;2024-03-02T14:04:30;14.60;74.80
1700;DHT22;847;48.058;7.810;2024-03-02T14:06:57;14.50;74.70
1700;DHT22;847;48.058;7.810;2024-03-02T14:09:24;14.50;77.70
1700;DHT22;847;48.058;7.810;2024-03-02T14:11:51;14.40;78.20
1700;DHT22;847;48.058;7.810;2024-03-02T14:14:17;14.30;77.00
1700;DHT22;847;48.058;7.810;2024-03-02T14:16:45;14.30;76.00
1700;DHT22;847;48.058;7.810;2024-03-02T14:19:12;14.30;76.60
1700;DHT22;847;48.058;7.810;2024-03-02T14:21:39;14.20;77.30
1700;DHT22;847;48.058;7.810;2024-03-02T14:24:06;14.20;76.50
1700;DHT22;847;48.058;7.810;2024-03-02T14:26:33;14.30;76.60
1700;DHT22;847;48.058;7.810;2024-03-02T14:29:00;14.30;77.40
1700;DHT22;847;48.058;7.810;2024-03-02T14:31:27;14.30;77.10
1700;DHT22;847;48.058;7.810;2024-03-02T14:33:55;14.30;77.30
1700;DHT22;847;48.058;7.810;2024-03-02T14:36:22;14.30;76.80
1700;DHT22;847;48.058;7.810;2024-03-02T14:38:49;14.20;75.90
1700;DHT22;847;48.058;7.810;2024-03-02T14:41:16;14.20;76.30
1700;DHT22;847;48.058;7.810;2024-03-02T14:43:43;14.20;78.00
1700;DHT22;847;48.058;7.810;2024-03-02T14:46:10;14.20;78.20
1700;DHT22;847;48.058;7.810;2024-03-02T14:48:37;14.20;79.80
1700;DHT22;847;48.058;7.810;2024-03-02T14:51:06;14.10;79.80
1700;DHT22;847;48.058;7.810;2024-03-02T14:53:32;14.10;80.10
1700;DHT22;847;48.058;7.810;2024-03-02T14:55:59;14.00;77.60
1700;DHT22;847;48.058;7.810;2024-03-02T14:58:26;14.10;80.00
1700;DHT22;847;48.058;7.810;2024-03-02T15:00:53;14.10;79.50
1700;DHT22;847;48.058;7.810;2024-03-02T15:03:19;14.00;79.40
1700;DHT22;847;48.058;7.810;2024-03-02T15:05:46;14.10;79.50
1700;DHT22;847;48.058;7.810;2024-03-02T15:08:18;14.00;80.00
1700;DHT22;847;48.058;7.810;2024-03-02T15:10:45;14.00;77.60
1700;DHT22;847;48.058;7.810;2024-03-02T15:13:14;14.00;78.00
1700;DHT22;847;48.058;7.810;2024-03-02T15:15:43;14.00;77.70
1700;DHT22;847;48.058;7.810;2024-03-02T15:18:10;14.10;74.00
1700;DHT22;847;48.058;7.810;2024-03-02T15:20:43;14.10;74.00
1700;DHT22;847;48.058;7.810;2024-03-02T15:23:10;14.10;74.00
1700;DHT22;847;48.058;7.810;2024-03-02T15:25:39;14.10;72.80
1700;DHT22;847;48.058;7.810;2024-03-02T15:28:06;14.10;72.40
1700;DHT22;847;48.058;7.810;2024-03-02T15:30:33;14.10;72.40
1700;DHT22;847;48.058;7.810;2024-03-02T15:33:00;14.10;72.80
1700;DHT22;847;48.058;7.810;2024-03-02T15:35:27;14.10;72.60
1700;DHT22;847;48.058;7.810;2024-03-02T15:37:53;14.20;72.90
1700;DHT22;847;48.058;7.810;2024-03-02T15:40:20;14.20;72.90
1700;DHT22;847;48.058;7.810;2024-03-02T15:42:48;14.20;73.20
1700;DHT22;847;48.058;7.810;2024-03-02T15:45:15;14.20;73.50
1700;DHT22;847;48.058;7.810;2024-03-02T15:47:42;14.20;73.40
1700;DHT22;847;48.058;7.810;2024-03-02T15:50:09;14.20;71.80
1700;DHT22;847;48.058;7.810;2024-03-02T15:52:36;14.30;70.70
1700;DHT22;847;48.058;7.810;2024-03-02T15:55:04;14.30;71.90
1700;DHT22;847;48.058;7.810;2024-03-02T15:57:31;14.30;71.70
1700;DHT22;847;48.058;7.810;2024-03-02T15:59:59;14.30;70.80
1700;DHT22;847;48.058;7.810;2024-03-02T16:02:26;14.40;71.00
1700;DHT22;847;48.058;7.810;2024-03-02T16:04:53;14.40;71.20
1700;DHT22;847;48.058;7.810;2024-03-02T16:07:19;14.40;71.20
1700;DHT22;847;48.058;7.810;2024-03-02T16:09:46;14.40;71.40
1700;DHT22;847;48.058;7.810;2024-03-02T16:12:13;14.40;71.50
1700;DHT22;847;48.058;7.810;2024-03-02T16:14:40;14.40;71.40
1700;DHT22;847;48.058;7.810;2024-03-02T16:17:08;14.50;70.40
1700;DHT22;847;48.058;7.810;2024-03-02T16:19:35;14.50;70.50
1700;DHT22;847;48.058;7.810;2024-03-02T16:22:04;14.50;70.80
1700;DHT22;847;48.058;7.810;2024-03-02T16:24:32;14.50;70.90
1700;DHT22;847;48.058;7.810;2024-03-02T16:26:58;14.40;71.40
1700;DHT22;847;48.058;7.810;2024-03-02T16:29:25;14.40;72.50
1700;DHT22;847;48.058;7.810;2024-03-02T16:31:52;14.30;72.10
1700;DHT22;847;48.058;7.810;2024-03-02T16:34:20;14.30;73.60
1700;DHT22;847;48.058;7.810;2024-03-02T16:36:47;14.20;76.00
1700;DHT22;847;48.058;7.810;2024-03-02T16:39:13;14.10;75.90
1700;DHT22;847;48.058;7.810;2024-03-02T16:41:40;14.10;77.40
1700;DHT22;847;48.058;7.810;2024-03-02T16:44:12;14.00;78.10
1700;DHT22;847;48.058;7.810;2024-03-02T16:46:39;14.00;77.60
1700;DHT22;847;48.058;7.810;2024-03-02T16:49:06;13.90;78.30
1700;DHT22;847;48.058;7.810;2024-03-02T16:51:39;13.80;79.10
1700;DHT22;847;48.058;7.810;2024-03-02T16:54:06;13.80;79.10
1700;DHT22;847;48.058;7.810;2024-03-02T16:56:38;13.70;79.50
1700;DHT22;847;48.058;7.810;2024-03-02T16:59:05;13.70;79.70
1700;DHT22;847;48.058;7.810;2024-03-02T17:01:32;13.60;80.10
1700;DHT22;847;48.058;7.810;2024-03-02T17:03:59;13.60;81.40
1700;DHT22;847;48.058;7.810;2024-03-02T17:06:53;13.50;82.60
1700;DHT22;847;48.058;7.810;2024-03-02T17:09:20;13.40;83.10
1700;DHT22;847;48.058;7.810;2024-03-02T17:11:47;13.30;84.00
1700;DHT22;847;48.058;7.810;2024-03-02T17:14:14;13.10;84.20
1700;DHT22;847;48.058;7.810;2024-03-02T17:16:41;13.00;83.70
1700;DHT22;847;48.058;7.810;2024-03-02T17:19:07;13.00;84.10
1700;DHT22;847;48.058;7.810;2024-03-02T17:21:34;13.00;84.20
1700;DHT22;847;48.058;7.810;2024-03-02T17:24:02;13.00;84.30
1700;DHT22;847;48.058;7.810;2024-03-02T17:26:30;12.90;84.00
1700;DHT22;847;48.058;7.810;2024-03-02T17:28:57;12.90;83.70
1700;DHT22;847;48.058;7.810;2024-03-02T17:31:23;12.90;84.00
1700;DHT22;847;48.058;7.810;2024-03-02T17:33:50;12.80;84.40
1700;DHT22;847;48.058;7.810;2024-03-02T17:36:17;12.70;84.70
1700;DHT22;847;48.058;7.810;2024-03-02T17:38:44;12.70;84.60
1700;DHT22;847;48.058;7.810;2024-03-02T17:41:15;12.60;83.90
1700;DHT22;847;48.058;7.810;2024-03-02T17:43:42;12.60;84.50
1700;DHT22;847;48.058;7.810;2024-03-02T17:46:09;12.50;84.30
1700;DHT22;847;48.058;7.810;2024-03-02T17:48:35;12.50;84.50
1700;DHT22;847;48.058;7.810;2024-03-02T17:51:06;12.40;84.20
1700;DHT22;847;48.058;7.810;2024-03-02T17:53:33;12.30;83.10
1700;DHT22;847;48.058;7.810;2024-03-02T17:56:00;12.10;84.00
1700;DHT22;847;48.058;7.810;2024-03-02T17:58:28;12.00;84.70
1700;DHT22;847;48.058;7.810;2024-03-02T18:00:54;11.90;84.50
1700;DHT22;847;48.058;7.810;2024-03-02T18:03:21;12.00;84.80
1700;DHT22;847;48.058;7.810;2024-03-02T18:05:48;12.00;84.20
1700;DHT22;847;48.058;7.810;2024-03-02T18:08:15;11.90;83.30
1700;DHT22;847;48.058;7.810;2024-03-02T18:10:42;11.90;84.20
1700;DHT22;847;48.058;7.810;2024-03-02T18:13:08;11.80;84.80
1700;DHT22;847;48.058;7.810;2024-03-02T18:15:37;11.80;84.80
1700;DHT22;847;48.058;7.810;2024-03-02T18:18:04;11.80;84.90
1700;DHT22;847;48.058;7.810;2024-03-02T18:20:31;11.80;85.00
1700;DHT22;847;48.058;7.810;2024-03-02T18:23:00;11.80;85.10
1700;DHT22;847;48.058;7.810;2024-03-02T18:25:26;11.90;85.20
1700;DHT22;847;48.058;7.810;2024-03-02T18:27:53;11.90;84.60
1700;DHT22;847;48.058;7.810;2024-03-02T18:30:20;11.90;83.90
1700;DHT22;847;48.058;7.810;2024-03-02T18:32:49;11.90;83.90
1700;DHT22;847;48.058;7.810;2024-03-02T18:35:15;11.90;83.30
1700;DHT22;847;48.058;7.810;2024-03-02T18:37:43;11.90;81.90
1700;DHT22;847;48.058;7.810;2024-03-02T18:54:12;11.80;82.40
1700;DHT22;847;48.058;7.810;2024-03-02T18:56:39;11.80;82.50
1700;DHT22;847;48.058;7.810;2024-03-02T18:59:06;11.80;82.10
1700;DHT22;847;48.058;7.810;2024-03-02T19:01:32;11.80;81.90
1700;DHT22;847;48.058;7.810;2024-03-02T19:03:59;11.80;82.40
1700;DHT22;847;48.058;7.810;2024-03-02T19:06:26;11.80;82.50
1700;DHT22;847;48.058;7.810;2024-03-02T19:08:53;11.70;82.50
1700;DHT22;847;48.058;7.810;2024-03-02T19:11:21;11.70;83.30
